createdAt,value
2022-12-05T00:00:34.373Z,3.41
2022-12-05T00:03:37.021Z,3.50
2022-12-05T00:06:41.000Z,3.50
2022-12-05T00:09:43.474Z,3.55
2022-12-05T00:12:45.940Z,3.59
2022-12-05T00:15:48.519Z,3.67
2022-12-05T00:18:51.284Z,3.53
2022-12-05T00:21:53.921Z,3.65
2022-12-05T00:24:56.483Z,3.63
2022-12-05T00:27:58.977Z,3.63
2022-12-05T00:31:07.676Z,3.56
2022-12-05T00:34:10.562Z,3.48
2022-12-05T00:37:13.035Z,3.58
2022-12-05T00:40:15.850Z,3.64
2022-12-05T00:43:18.316Z,3.74
2022-12-05T00:46:24.367Z,3.90
2022-12-05T00:49:28.648Z,3.91
2022-12-05T00:52:31.257Z,3.82
2022-12-05T00:55:37.841Z,3.77
2022-12-05T00:58:40.895Z,3.91
2022-12-05T01:01:45.763Z,3.62
2022-12-05T01:04:48.250Z,3.73
2022-12-05T01:07:50.749Z,3.83
2022-12-05T01:10:57.577Z,3.89
2022-12-05T01:14:00.364Z,4.02
2022-12-05T01:17:03.162Z,4.06
2022-12-05T01:20:06.678Z,4.11
2022-12-05T01:23:09.677Z,4.20
2022-12-05T01:26:14.665Z,4.19
2022-12-05T01:29:19.596Z,4.29
2022-12-05T01:32:22.114Z,4.26
2022-12-05T01:35:24.696Z,4.23
2022-12-05T01:38:27.181Z,4.13
2022-12-05T01:41:35.698Z,4.19
2022-12-05T01:44:38.363Z,4.25
2022-12-05T01:47:41.030Z,4.23
2022-12-05T01:50:44.208Z,4.24
2022-12-05T01:53:46.868Z,4.24
2022-12-05T01:57:15.696Z,4.25
2022-12-05T02:00:19.999Z,4.23
2022-12-05T02:03:23.116Z,4.10
2022-12-05T02:06:27.210Z,4.12
2022-12-05T02:09:29.670Z,4.08
2022-12-05T02:12:32.608Z,4.25
2022-12-05T02:15:55.409Z,4.00
2022-12-05T02:19:36.901Z,4.11
2022-12-05T02:22:57.700Z,4.15
2022-12-05T02:26:29.085Z,4.21
2022-12-05T02:30:06.942Z,4.15
2022-12-05T02:33:30.083Z,4.23
2022-12-05T02:37:05.942Z,3.90
2022-12-05T02:40:11.456Z,3.87
2022-12-05T02:43:20.332Z,3.67
2022-12-05T02:46:25.571Z,3.73
2022-12-05T02:49:32.834Z,3.78
2022-12-05T02:52:36.853Z,3.89
2022-12-05T02:55:41.590Z,4.10
2022-12-05T02:58:55.081Z,4.14
2022-12-05T03:01:57.617Z,4.16
2022-12-05T03:05:15.530Z,4.13
2022-12-05T03:08:25.280Z,4.23
2022-12-05T03:11:36.416Z,4.21
2022-12-05T03:14:46.992Z,4.12
2022-12-05T03:18:20.559Z,4.00
2022-12-05T03:21:45.998Z,4.04
2022-12-05T03:24:48.882Z,4.22
2022-12-05T03:28:07.647Z,4.34
2022-12-05T03:31:16.419Z,4.32
2022-12-05T03:34:37.515Z,4.39
2022-12-05T03:37:39.934Z,4.40
2022-12-05T03:40:49.368Z,4.38
2022-12-05T03:44:06.070Z,4.41
2022-12-05T03:47:31.704Z,4.45
2022-12-05T03:50:37.555Z,4.45
2022-12-05T03:53:59.220Z,4.46
2022-12-05T03:57:09.267Z,4.54
2022-12-05T04:00:21.033Z,4.56
2022-12-05T04:03:39.868Z,4.56
2022-12-05T04:06:49.393Z,4.64
2022-12-05T04:10:03.697Z,4.55
2022-12-05T04:13:18.145Z,4.48
2022-12-05T04:16:43.536Z,4.35
2022-12-05T04:20:19.461Z,4.24
2022-12-05T04:23:22.963Z,4.39
2022-12-05T04:26:31.828Z,4.35
2022-12-05T04:29:42.604Z,4.49
2022-12-05T04:33:03.247Z,4.47
2022-12-05T04:36:11.756Z,4.49
2022-12-05T04:39:23.455Z,4.54
2022-12-05T04:42:30.017Z,4.55
2022-12-05T04:45:35.412Z,4.56
2022-12-05T04:48:40.965Z,4.53
2022-12-05T04:51:45.634Z,4.52
2022-12-05T04:55:01.509Z,4.58
2022-12-05T04:58:14.853Z,4.52
2022-12-05T05:01:25.759Z,4.54
2022-12-05T05:04:42.902Z,4.61
2022-12-05T05:07:53.711Z,4.50
2022-12-05T05:10:56.185Z,4.57
2022-12-05T05:13:59.391Z,4.69
2022-12-05T05:17:01.955Z,4.63
2022-12-05T05:20:23.843Z,4.39
2022-12-05T05:23:26.225Z,4.40
2022-12-05T05:26:30.631Z,4.48
2022-12-05T05:29:33.140Z,4.42
2022-12-05T05:32:35.822Z,4.47
2022-12-05T05:35:38.903Z,4.39
2022-12-05T05:38:44.841Z,4.43
2022-12-05T05:41:47.199Z,4.34
2022-12-05T05:44:49.599Z,4.33
2022-12-05T05:47:52.086Z,4.36
2022-12-05T05:50:54.519Z,4.45
2022-12-05T05:53:58.064Z,4.43
2022-12-05T05:57:00.541Z,4.48
2022-12-05T06:00:07.519Z,4.53
2022-12-05T06:03:10.368Z,4.44
2022-12-05T06:06:14.624Z,4.53
2022-12-05T06:09:17.163Z,4.49
2022-12-05T06:12:19.788Z,4.60
2022-12-05T06:15:22.741Z,4.57
2022-12-05T06:18:25.223Z,4.50
2022-12-05T06:21:28.121Z,4.54
2022-12-05T06:24:30.860Z,4.54
2022-12-05T06:27:33.762Z,4.64
2022-12-05T06:30:38.852Z,4.66
2022-12-05T06:33:41.851Z,4.73
2022-12-05T06:36:51.637Z,4.68
2022-12-05T06:39:54.941Z,4.61
2022-12-05T06:42:57.538Z,4.60
2022-12-05T06:46:00.773Z,4.72
2022-12-05T06:49:04.608Z,4.74
2022-12-05T06:52:08.023Z,4.79
2022-12-05T06:55:10.508Z,4.75
2022-12-05T06:58:13.037Z,4.81
2022-12-05T07:01:37.615Z,4.87
2022-12-05T07:04:40.158Z,4.79
2022-12-05T07:07:42.707Z,4.90
2022-12-05T07:10:52.409Z,4.58
2022-12-05T07:13:55.624Z,4.69
2022-12-05T07:16:58.165Z,4.58
2022-12-05T07:20:01.057Z,4.50
2022-12-05T07:23:03.709Z,4.32
2022-12-05T07:26:08.055Z,4.42
2022-12-05T07:29:10.850Z,4.42
2022-12-05T07:32:13.718Z,4.32
2022-12-05T07:35:16.376Z,4.29
2022-12-05T07:38:18.923Z,4.38
2022-12-05T07:41:33.078Z,4.38
2022-12-05T07:44:35.864Z,4.53
2022-12-05T07:47:38.725Z,4.53
2022-12-05T07:50:41.687Z,4.60
2022-12-05T07:53:44.551Z,4.82
2022-12-05T07:56:48.144Z,4.88
2022-12-05T07:59:51.153Z,4.94
2022-12-05T08:02:53.838Z,4.82
2022-12-05T08:05:56.542Z,4.88
2022-12-05T08:08:59.314Z,4.81
2022-12-05T08:12:02.486Z,4.82
2022-12-05T08:15:06.349Z,4.89
2022-12-05T08:18:08.782Z,4.87
2022-12-05T08:21:14.806Z,4.83
2022-12-05T08:24:17.393Z,4.95
2022-12-05T08:27:19.936Z,5.10
2022-12-05T08:30:22.654Z,5.13
2022-12-05T08:33:25.239Z,5.27
2022-12-05T08:36:29.672Z,5.31
2022-12-05T08:39:37.993Z,5.26
2022-12-05T08:42:44.918Z,5.32
2022-12-05T08:45:52.294Z,5.48
2022-12-05T08:48:55.039Z,5.51
2022-12-05T08:51:57.504Z,5.56
2022-12-05T08:55:00.343Z,5.57
2022-12-05T08:58:03.844Z,5.44
2022-12-05T09:01:07.085Z,5.35
2022-12-05T09:04:09.899Z,5.41
2022-12-05T09:07:12.440Z,5.59
2022-12-05T09:10:16.433Z,5.65
2022-12-05T09:13:19.604Z,5.78
2022-12-05T09:16:33.526Z,6.09
2022-12-05T09:19:41.522Z,6.08
2022-12-05T09:22:44.035Z,5.73
2022-12-05T09:25:54.237Z,5.73
2022-12-05T09:28:57.483Z,5.77
2022-12-05T09:32:00.925Z,5.57
2022-12-05T09:35:03.596Z,5.73
2022-12-05T09:38:06.256Z,5.74
2022-12-05T09:41:55.692Z,5.67
2022-12-05T09:45:04.582Z,5.75
2022-12-05T09:48:16.493Z,5.59
2022-12-05T09:51:19.083Z,5.52
2022-12-05T09:54:22.822Z,5.51
2022-12-05T09:57:39.199Z,5.68
2022-12-05T10:00:41.919Z,5.70
2022-12-05T10:04:01.745Z,5.72
2022-12-05T10:07:10.326Z,5.60
2022-12-05T10:10:29.332Z,5.12
2022-12-05T10:14:22.509Z,5.25
2022-12-05T10:17:38.823Z,5.45
2022-12-05T10:21:00.253Z,5.36
2022-12-05T10:24:06.170Z,5.23
2022-12-05T10:27:17.089Z,5.47
2022-12-05T10:30:31.098Z,5.52
2022-12-05T10:33:43.514Z,5.30
2022-12-05T10:37:02.597Z,5.16
2022-12-05T10:40:07.599Z,5.16
2022-12-05T10:43:16.721Z,5.18
2022-12-05T10:46:19.869Z,5.12
2022-12-05T10:49:23.967Z,5.08
2022-12-05T10:52:26.860Z,5.07
2022-12-05T10:56:00.026Z,5.37
2022-12-05T10:59:09.451Z,5.64
2022-12-05T11:02:25.032Z,5.51
2022-12-05T11:05:30.326Z,5.22
2022-12-05T11:09:03.139Z,5.60
2022-12-05T11:12:02.668Z,5.78
2022-12-05T11:15:21.766Z,5.68
2022-12-05T11:18:31.442Z,5.49
2022-12-05T11:21:45.203Z,5.70
2022-12-05T11:24:47.769Z,6.03
2022-12-05T11:27:50.337Z,5.97
2022-12-05T11:31:01.540Z,6.19
2022-12-05T11:34:14.986Z,6.34
2022-12-05T11:37:28.523Z,6.42
2022-12-05T11:40:38.720Z,6.47
2022-12-05T11:43:48.152Z,6.36
2022-12-05T11:47:10.976Z,6.39
2022-12-05T11:50:51.685Z,6.51
2022-12-05T11:54:41.674Z,6.34
2022-12-05T11:57:54.814Z,6.29
2022-12-05T12:01:21.556Z,6.16
2022-12-05T12:04:30.130Z,6.11
2022-12-05T12:07:51.180Z,6.18
2022-12-05T12:11:03.427Z,6.32
2022-12-05T12:14:08.833Z,6.47
2022-12-05T12:17:29.118Z,6.63
2022-12-05T12:20:52.555Z,6.51
2022-12-05T12:24:09.995Z,6.45
2022-12-05T12:27:31.261Z,6.75
2022-12-05T12:30:44.290Z,6.79
2022-12-05T12:33:56.435Z,6.66
2022-12-05T12:37:45.527Z,6.72
2022-12-05T12:41:02.883Z,6.74
2022-12-05T12:44:23.789Z,6.69
2022-12-05T12:47:40.101Z,6.66
2022-12-05T12:50:47.255Z,6.50
2022-12-05T12:54:04.932Z,6.56
2022-12-05T12:57:23.616Z,6.59
2022-12-05T13:00:56.675Z,6.63
2022-12-05T13:04:02.999Z,6.55
2022-12-05T13:07:19.279Z,6.52
2022-12-05T13:10:35.981Z,6.61
2022-12-05T13:13:48.251Z,6.62
2022-12-05T13:16:54.438Z,6.72
2022-12-05T13:19:58.249Z,6.64
2022-12-05T13:23:07.715Z,6.66
2022-12-05T13:26:13.335Z,6.77
2022-12-05T13:29:34.899Z,6.97
2022-12-05T13:32:41.033Z,6.90
2022-12-05T13:36:02.216Z,6.92
2022-12-05T13:39:32.606Z,6.87
2022-12-05T13:42:36.715Z,6.86
2022-12-05T13:45:42.261Z,6.84
2022-12-05T13:48:49.017Z,6.75
2022-12-05T13:51:52.074Z,6.84
2022-12-05T13:55:20.160Z,6.79
2022-12-05T13:58:22.627Z,6.78
2022-12-05T14:01:25.227Z,6.78
2022-12-05T14:04:48.204Z,6.55
2022-12-05T14:07:59.779Z,6.48
2022-12-05T14:11:10.139Z,6.32
2022-12-05T14:14:12.746Z,6.32
2022-12-05T14:17:15.675Z,6.20
2022-12-05T14:20:47.098Z,6.32
2022-12-05T14:24:25.147Z,6.10
2022-12-05T14:28:17.134Z,6.22
2022-12-05T14:31:30.406Z,6.05
2022-12-05T14:34:36.417Z,6.04
2022-12-05T14:37:54.528Z,5.98
2022-12-05T14:41:28.510Z,5.93
2022-12-05T14:44:34.672Z,6.12
2022-12-05T14:47:37.338Z,6.19
2022-12-05T14:50:46.708Z,6.03
2022-12-05T14:54:04.633Z,5.89
2022-12-05T14:57:18.081Z,5.87
2022-12-05T15:00:22.953Z,5.81
2022-12-05T15:03:34.679Z,5.84
2022-12-05T15:07:02.315Z,5.72
2022-12-05T15:10:17.316Z,5.81
2022-12-05T15:13:25.130Z,5.76
2022-12-05T15:16:30.111Z,5.79
2022-12-05T15:19:54.639Z,5.94
2022-12-05T15:22:57.127Z,5.98
2022-12-05T15:26:17.599Z,5.94
2022-12-05T15:29:28.778Z,5.95
2022-12-05T15:32:31.455Z,6.06
2022-12-05T15:35:34.635Z,6.09
2022-12-05T15:38:37.452Z,6.13
2022-12-05T15:41:39.968Z,6.14
2022-12-05T15:44:42.424Z,6.12
2022-12-05T15:47:48.930Z,6.12
2022-12-05T15:50:54.305Z,6.19
2022-12-05T15:54:14.112Z,6.15
2022-12-05T15:57:23.787Z,6.18
2022-12-05T16:00:28.701Z,6.07
2022-12-05T16:03:49.955Z,5.83
2022-12-05T16:06:55.731Z,5.82
2022-12-05T16:10:00.774Z,5.92
2022-12-05T16:13:13.957Z,5.94
2022-12-05T16:16:21.987Z,6.11
2022-12-05T16:19:25.192Z,6.11
2022-12-05T16:22:29.068Z,6.11
2022-12-05T16:25:38.905Z,6.20
2022-12-05T16:28:41.426Z,6.25
2022-12-05T16:31:44.692Z,6.22
2022-12-05T16:34:48.039Z,6.16
2022-12-05T16:37:50.791Z,6.18
2022-12-05T16:40:56.327Z,6.22
2022-12-05T16:43:59.284Z,6.33
2022-12-05T16:47:02.168Z,6.24
2022-12-05T16:50:24.276Z,6.26
2022-12-05T16:53:32.888Z,6.09
2022-12-05T16:56:35.887Z,5.94
2022-12-05T16:59:43.993Z,5.96
2022-12-05T17:02:47.311Z,5.94
2022-12-05T17:05:50.733Z,5.85
2022-12-05T17:08:54.747Z,5.76
2022-12-05T17:12:05.288Z,5.75
2022-12-05T17:15:17.095Z,5.77
2022-12-05T17:18:29.622Z,5.80
2022-12-05T17:21:34.647Z,5.75
2022-12-05T17:24:37.095Z,5.81
2022-12-05T17:27:40.012Z,5.85
2022-12-05T17:30:43.326Z,5.90
2022-12-05T17:33:48.343Z,5.88
2022-12-05T17:36:50.748Z,5.92
2022-12-05T17:39:53.629Z,6.18
2022-12-05T17:42:56.121Z,6.18
2022-12-05T17:46:03.157Z,6.24
2022-12-05T17:49:05.815Z,6.25
2022-12-05T17:52:24.841Z,6.34
2022-12-05T17:55:28.851Z,6.31
2022-12-05T17:58:31.760Z,6.26
2022-12-05T18:01:34.503Z,6.42
2022-12-05T18:04:37.254Z,6.45
2022-12-05T18:07:41.141Z,6.35
2022-12-05T18:10:48.938Z,6.21
2022-12-05T18:13:51.489Z,6.11
2022-12-05T18:16:54.911Z,6.21
2022-12-05T18:19:57.909Z,6.15
2022-12-05T18:23:02.875Z,6.25
2022-12-05T18:26:07.221Z,6.19
2022-12-05T18:29:09.885Z,6.09
2022-12-05T18:32:12.530Z,5.97
2022-12-05T18:35:15.422Z,6.04
2022-12-05T18:38:17.850Z,6.11
2022-12-05T18:41:23.433Z,6.02
2022-12-05T18:44:26.687Z,5.96
2022-12-05T18:47:30.696Z,5.96
2022-12-05T18:50:33.428Z,6.01
2022-12-05T18:53:36.179Z,6.05
2022-12-05T18:56:40.198Z,6.14
2022-12-05T18:59:43.175Z,6.06
2022-12-05T19:02:48.475Z,6.05
2022-12-05T19:05:51.430Z,6.12
2022-12-05T19:08:55.527Z,6.22
2022-12-05T19:11:59.668Z,6.14
2022-12-05T19:15:02.387Z,6.03
2022-12-05T19:18:06.092Z,5.96
2022-12-05T19:21:12.942Z,5.92
2022-12-05T19:24:18.214Z,5.92
2022-12-05T19:27:21.986Z,5.85
2022-12-05T19:30:31.174Z,5.81
2022-12-05T19:33:36.750Z,5.93
2022-12-05T19:36:44.608Z,5.98
2022-12-05T19:39:47.493Z,6.06
2022-12-05T19:42:50.295Z,6.04
2022-12-05T19:45:52.992Z,6.01
2022-12-05T19:48:58.240Z,6.09
2022-12-05T19:52:00.845Z,6.08
2022-12-05T19:55:03.653Z,6.18
2022-12-05T19:58:06.401Z,6.18
2022-12-05T20:01:35.526Z,6.20
2022-12-05T20:04:38.524Z,6.29
2022-12-05T20:07:41.417Z,6.21
2022-12-05T20:10:45.130Z,6.10
2022-12-05T20:13:48.576Z,6.09
2022-12-05T20:16:54.756Z,6.17
2022-12-05T20:20:08.953Z,6.11
2022-12-05T20:23:14.123Z,6.17
2022-12-05T20:26:26.136Z,5.99
2022-12-05T20:29:28.853Z,5.99
2022-12-05T20:32:31.575Z,6.03
2022-12-05T20:35:37.167Z,6.08
2022-12-05T20:38:40.281Z,6.05
2022-12-05T20:41:44.294Z,5.92
2022-12-05T20:44:47.255Z,5.66
2022-12-05T20:47:51.418Z,5.61
2022-12-05T20:50:54.675Z,5.58
2022-12-05T20:53:59.089Z,5.55
2022-12-05T20:57:03.158Z,5.55
2022-12-05T21:00:07.143Z,5.61
2022-12-05T21:03:16.972Z,5.65
2022-12-05T21:06:26.844Z,5.67
2022-12-05T21:09:31.840Z,5.71
2022-12-05T21:12:34.877Z,5.71
2022-12-05T21:15:37.490Z,5.77
2022-12-05T21:18:40.984Z,5.77
2022-12-05T21:21:43.642Z,5.64
2022-12-05T21:24:46.095Z,5.51
2022-12-05T21:27:48.616Z,5.62
2022-12-05T21:30:53.885Z,5.48
2022-12-05T21:34:02.597Z,5.36
2022-12-05T21:37:05.145Z,5.29
2022-12-05T21:40:08.537Z,5.24
2022-12-05T21:43:13.243Z,5.21
2022-12-05T21:46:15.741Z,5.34
2022-12-05T21:49:18.120Z,5.38
2022-12-05T21:52:21.642Z,5.33
2022-12-05T21:55:24.064Z,5.24
2022-12-05T21:58:26.568Z,5.24
2022-12-05T22:01:30.148Z,5.35
2022-12-05T22:04:32.820Z,5.31
2022-12-05T22:07:35.381Z,5.33
2022-12-05T22:10:49.927Z,5.43
2022-12-05T22:13:53.319Z,5.51
2022-12-05T22:16:55.720Z,5.63
2022-12-05T22:19:59.871Z,5.64
2022-12-05T22:23:02.795Z,5.69
2022-12-05T22:26:14.080Z,5.65
2022-12-05T22:29:16.531Z,5.72
2022-12-05T22:32:19.029Z,5.76
2022-12-05T22:35:21.532Z,5.74
2022-12-05T22:38:29.211Z,5.74
2022-12-05T22:41:39.246Z,5.75
2022-12-05T22:44:41.751Z,5.78
2022-12-05T22:47:44.117Z,5.77
2022-12-05T22:50:48.877Z,5.82
2022-12-05T22:53:52.984Z,5.66
2022-12-05T22:56:55.764Z,5.61
2022-12-05T22:59:58.638Z,5.62
2022-12-05T23:03:01.524Z,5.52
2022-12-05T23:06:11.911Z,5.50
2022-12-05T23:09:14.756Z,5.54
2022-12-05T23:12:21.365Z,5.52
2022-12-05T23:15:23.821Z,5.54
2022-12-05T23:18:26.763Z,5.55
2022-12-05T23:21:30.620Z,5.59
2022-12-05T23:24:33.009Z,5.57
2022-12-05T23:27:35.543Z,5.61
2022-12-05T23:30:38.003Z,5.59
2022-12-05T23:33:40.921Z,5.64
2022-12-05T23:36:43.438Z,5.70
2022-12-05T23:39:46.074Z,5.71
2022-12-05T23:42:49.278Z,5.79
2022-12-05T23:45:51.760Z,5.73
2022-12-05T23:48:55.507Z,5.72
2022-12-05T23:51:58.055Z,5.65
2022-12-05T23:55:00.470Z,5.74
2022-12-05T23:58:02.886Z,5.77
